sensor_id;sensor_type;location;lat;lon;timestamp;P1;durP1;ratioP1;P2;durP2;ratioP2
21697;SDS011;11010;49.548;11.926;2023-02-15T00:01:32;10.17;;;3.63;;
21697;SDS011;11010;49.548;11.926;2023-02-15T00:03:59;10.97;;;3.97;;
21697;SDS011;11010;49.548;11.926;2023-02-15T00:06:27;11.73;;;4.00;;
21697;SDS011;11010;49.548;11.926;2023-02-15T00:08:54;10.67;;;3.77;;
21697;SDS011;11010;49.548;11.926;2023-02-15T00:11:22;10.90;;;3.90;;
21697;SDS011;11010;49.548;11.926;2023-02-15T00:14:11;10.97;;;3.70;;
21697;SDS011;11010;49.548;11.926;2023-02-15T00:16:40;10.53;;;3.53;;
21697;SDS011;11010;49.548;11.926;2023-02-15T00:19:10;10.13;;;3.23;;
21697;SDS011;11010;49.548;11.926;2023-02-15T00:21:38;11.37;;;3.80;;
21697;SDS011;11010;49.548;11.926;2023-02-15T00:24:07;10.37;;;3.60;;
21697;SDS011;11010;49.548;11.926;2023-02-15T00:26:35;11.20;;;3.90;;
21697;SDS011;11010;49.548;11.926;2023-02-15T00:29:02;11.20;;;3.80;;
21697;SDS011;11010;49.548;11.926;2023-02-15T00:31:30;11.57;;;3.67;;
21697;SDS011;11010;49.548;11.926;2023-02-15T00:34:02;10.37;;;3.43;;
21697;SDS011;11010;49.548;11.926;2023-02-15T00:36:30;10.63;;;3.37;;
21697;SDS011;11010;49.548;11.926;2023-02-15T00:38:57;10.97;;;3.40;;
21697;SDS011;11010;49.548;11.926;2023-02-15T00:41:24;10.00;;;3.70;;
21697;SDS011;11010;49.548;11.926;2023-02-15T00:43:52;11.03;;;3.73;;
21697;SDS011;11010;49.548;11.926;2023-02-15T00:46:19;11.73;;;3.67;;
21697;SDS011;11010;49.548;11.926;2023-02-15T00:48:47;10.20;;;3.67;;
21697;SDS011;11010;49.548;11.926;2023-02-15T00:51:14;9.63;;;3.40;;
21697;SDS011;11010;49.548;11.926;2023-02-15T00:53:42;10.10;;;3.47;;
21697;SDS011;11010;49.548;11.926;2023-02-15T00:56:10;11.43;;;3.70;;
21697;SDS011;11010;49.548;11.926;2023-02-15T00:58:38;11.27;;;3.77;;
21697;SDS011;11010;49.548;11.926;2023-02-15T01:01:09;11.17;;;4.20;;
21697;SDS011;11010;49.548;11.926;2023-02-15T01:03:37;11.20;;;3.80;;
21697;SDS011;11010;49.548;11.926;2023-02-15T01:06:04;9.90;;;3.60;;
21697;SDS011;11010;49.548;11.926;2023-02-15T01:08:32;10.90;;;3.43;;
21697;SDS011;11010;49.548;11.926;2023-02-15T01:11:18;10.23;;;3.40;;
21697;SDS011;11010;49.548;11.926;2023-02-15T01:13:58;11.07;;;3.70;;
21697;SDS011;11010;49.548;11.926;2023-02-15T01:16:26;11.87;;;3.60;;
21697;SDS011;11010;49.548;11.926;2023-02-15T01:18:54;9.93;;;3.37;;
21697;SDS011;11010;49.548;11.926;2023-02-15T01:21:23;10.40;;;3.53;;
21697;SDS011;11010;49.548;11.926;2023-02-15T01:23:51;9.90;;;3.27;;
21697;SDS011;11010;49.548;11.926;2023-02-15T01:26:18;9.07;;;3.27;;
21697;SDS011;11010;49.548;11.926;2023-02-15T01:28:46;11.10;;;3.93;;
21697;SDS011;11010;49.548;11.926;2023-02-15T01:31:16;10.03;;;3.73;;
21697;SDS011;11010;49.548;11.926;2023-02-15T01:33:44;10.13;;;3.33;;
21697;SDS011;11010;49.548;11.926;2023-02-15T01:36:12;11.07;;;3.90;;
21697;SDS011;11010;49.548;11.926;2023-02-15T01:38:40;10.20;;;3.20;;
21697;SDS011;11010;49.548;11.926;2023-02-15T01:41:08;11.07;;;3.50;;
21697;SDS011;11010;49.548;11.926;2023-02-15T01:43:56;11.23;;;3.93;;
21697;SDS011;11010;49.548;11.926;2023-02-15T01:46:28;10.27;;;3.37;;
21697;SDS011;11010;49.548;11.926;2023-02-15T01:49:02;9.80;;;3.40;;
21697;SDS011;11010;49.548;11.926;2023-02-15T01:51:31;10.53;;;3.57;;
21697;SDS011;11010;49.548;11.926;2023-02-15T01:54:01;11.73;;;3.80;;
21697;SDS011;11010;49.548;11.926;2023-02-15T01:56:31;10.80;;;3.63;;
21697;SDS011;11010;49.548;11.926;2023-02-15T01:59:02;10.60;;;3.57;;
21697;SDS011;11010;49.548;11.926;2023-02-15T02:01:30;11.47;;;3.80;;
21697;SDS011;11010;49.548;11.926;2023-02-15T02:06:31;12.23;;;4.40;;
21697;SDS011;11010;49.548;11.926;2023-02-15T02:08:59;12.03;;;3.83;;
21697;SDS011;11010;49.548;11.926;2023-02-15T02:11:27;11.33;;;4.20;;
21697;SDS011;11010;49.548;11.926;2023-02-15T02:13:55;12.70;;;4.20;;
21697;SDS011;11010;49.548;11.926;2023-02-15T02:29:28;13.33;;;4.73;;
21697;SDS011;11010;49.548;11.926;2023-02-15T02:34:34;11.90;;;4.10;;
21697;SDS011;11010;49.548;11.926;2023-02-15T02:42:33;13.60;;;4.33;;
21697;SDS011;11010;49.548;11.926;2023-02-15T02:47:38;12.87;;;4.47;;
21697;SDS011;11010;49.548;11.926;2023-02-15T02:50:08;14.00;;;4.77;;
21697;SDS011;11010;49.548;11.926;2023-02-15T02:52:43;13.83;;;4.97;;
21697;SDS011;11010;49.548;11.926;2023-02-15T02:57:47;12.30;;;4.10;;
21697;SDS011;11010;49.548;11.926;2023-02-15T03:00:20;11.77;;;4.30;;
21697;SDS011;11010;49.548;11.926;2023-02-15T03:02:49;11.77;;;4.13;;
21697;SDS011;11010;49.548;11.926;2023-02-15T03:05:21;13.10;;;4.50;;
21697;SDS011;11010;49.548;11.926;2023-02-15T03:07:49;12.20;;;4.50;;
21697;SDS011;11010;49.548;11.926;2023-02-15T03:10:20;12.27;;;4.40;;
21697;SDS011;11010;49.548;11.926;2023-02-15T03:12:49;15.80;;;6.23;;
21697;SDS011;11010;49.548;11.926;2023-02-15T03:15:25;13.63;;;4.57;;
21697;SDS011;11010;49.548;11.926;2023-02-15T03:18:13;12.70;;;4.20;;
21697;SDS011;11010;49.548;11.926;2023-02-15T03:20:42;13.33;;;4.63;;
21697;SDS011;11010;49.548;11.926;2023-02-15T03:23:12;13.60;;;4.67;;
21697;SDS011;11010;49.548;11.926;2023-02-15T03:25:41;12.60;;;4.60;;
21697;SDS011;11010;49.548;11.926;2023-02-15T03:28:15;13.27;;;4.83;;
21697;SDS011;11010;49.548;11.926;2023-02-15T03:30:45;13.13;;;4.70;;
21697;SDS011;11010;49.548;11.926;2023-02-15T03:33:15;12.77;;;4.50;;
21697;SDS011;11010;49.548;11.926;2023-02-15T03:35:47;14.93;;;4.70;;
21697;SDS011;11010;49.548;11.926;2023-02-15T03:38:17;13.13;;;4.63;;
21697;SDS011;11010;49.548;11.926;2023-02-15T03:40:47;13.97;;;4.93;;
21697;SDS011;11010;49.548;11.926;2023-02-15T03:43:52;15.23;;;5.30;;
21697;SDS011;11010;49.548;11.926;2023-02-15T03:48:58;13.97;;;4.87;;
21697;SDS011;11010;49.548;11.926;2023-02-15T03:51:28;14.17;;;4.83;;
21697;SDS011;11010;49.548;11.926;2023-02-15T03:54:09;14.73;;;5.43;;
21697;SDS011;11010;49.548;11.926;2023-02-15T03:56:38;15.27;;;5.50;;
21697;SDS011;11010;49.548;11.926;2023-02-15T03:59:06;15.13;;;5.43;;
21697;SDS011;11010;49.548;11.926;2023-02-15T04:04:38;15.13;;;5.70;;
21697;SDS011;11010;49.548;11.926;2023-02-15T04:07:06;14.60;;;5.53;;
21697;SDS011;11010;49.548;11.926;2023-02-15T04:09:34;15.23;;;5.60;;
21697;SDS011;11010;49.548;11.926;2023-02-15T04:12:20;16.07;;;5.60;;
21697;SDS011;11010;49.548;11.926;2023-02-15T04:14:47;16.67;;;5.93;;
21697;SDS011;11010;49.548;11.926;2023-02-15T04:17:35;16.37;;;5.57;;
21697;SDS011;11010;49.548;11.926;2023-02-15T04:20:03;15.50;;;5.43;;
21697;SDS011;11010;49.548;11.926;2023-02-15T04:22:49;14.10;;;5.30;;
21697;SDS011;11010;49.548;11.926;2023-02-15T04:35:48;12.93;;;4.23;;
21697;SDS011;11010;49.548;11.926;2023-02-15T04:38:15;13.93;;;5.27;;
21697;SDS011;11010;49.548;11.926;2023-02-15T04:40:42;15.20;;;5.40;;
21697;SDS011;11010;49.548;11.926;2023-02-15T04:43:10;16.20;;;5.77;;
21697;SDS011;11010;49.548;11.926;2023-02-15T04:45:37;16.80;;;5.10;;
21697;SDS011;11010;49.548;11.926;2023-02-15T04:48:05;17.60;;;5.83;;
21697;SDS011;11010;49.548;11.926;2023-02-15T04:50:32;14.57;;;5.30;;
21697;SDS011;11010;49.548;11.926;2023-02-15T04:53:00;16.80;;;5.83;;
21697;SDS011;11010;49.548;11.926;2023-02-15T04:55:27;15.87;;;5.73;;
21697;SDS011;11010;49.548;11.926;2023-02-15T04:57:54;15.93;;;5.67;;
21697;SDS011;11010;49.548;11.926;2023-02-15T05:00:22;15.87;;;5.67;;
21697;SDS011;11010;49.548;11.926;2023-02-15T05:02:49;17.67;;;6.07;;
21697;SDS011;11010;49.548;11.926;2023-02-15T05:05:17;15.87;;;6.27;;
21697;SDS011;11010;49.548;11.926;2023-02-15T05:07:44;14.70;;;5.37;;
21697;SDS011;11010;49.548;11.926;2023-02-15T05:10:12;16.40;;;5.90;;
21697;SDS011;11010;49.548;11.926;2023-02-15T05:12:39;17.60;;;6.20;;
21697;SDS011;11010;49.548;11.926;2023-02-15T05:15:06;16.57;;;5.70;;
21697;SDS011;11010;49.548;11.926;2023-02-15T05:17:34;15.93;;;5.83;;
21697;SDS011;11010;49.548;11.926;2023-02-15T05:20:02;16.63;;;5.90;;
21697;SDS011;11010;49.548;11.926;2023-02-15T05:22:29;16.93;;;6.30;;
21697;SDS011;11010;49.548;11.926;2023-02-15T05:24:57;14.17;;;5.23;;
21697;SDS011;11010;49.548;11.926;2023-02-15T05:27:43;16.40;;;5.63;;
21697;SDS011;11010;49.548;11.926;2023-02-15T05:30:30;16.17;;;5.40;;
21697;SDS011;11010;49.548;11.926;2023-02-15T05:32:58;16.33;;;5.80;;
21697;SDS011;11010;49.548;11.926;2023-02-15T05:35:25;16.17;;;5.83;;
21697;SDS011;11010;49.548;11.926;2023-02-15T05:37:53;19.20;;;7.10;;
21697;SDS011;11010;49.548;11.926;2023-02-15T05:40:20;16.70;;;6.13;;
21697;SDS011;11010;49.548;11.926;2023-02-15T05:42:47;17.53;;;6.27;;
21697;SDS011;11010;49.548;11.926;2023-02-15T05:45:15;17.27;;;6.47;;
21697;SDS011;11010;49.548;11.926;2023-02-15T05:47:42;17.20;;;6.50;;
21697;SDS011;11010;49.548;11.926;2023-02-15T05:50:10;16.73;;;5.93;;
21697;SDS011;11010;49.548;11.926;2023-02-15T05:52:37;17.00;;;6.50;;
21697;SDS011;11010;49.548;11.926;2023-02-15T05:55:05;15.97;;;5.90;;
21697;SDS011;11010;49.548;11.926;2023-02-15T05:57:33;16.43;;;5.77;;
21697;SDS011;11010;49.548;11.926;2023-02-15T06:00:01;16.00;;;5.50;;
21697;SDS011;11010;49.548;11.926;2023-02-15T06:02:36;15.27;;;5.50;;
21697;SDS011;11010;49.548;11.926;2023-02-15T06:05:05;16.53;;;5.90;;
21697;SDS011;11010;49.548;11.926;2023-02-15T06:07:32;15.97;;;5.77;;
21697;SDS011;11010;49.548;11.926;2023-02-15T06:10:00;16.43;;;6.30;;
21697;SDS011;11010;49.548;11.926;2023-02-15T06:12:27;16.53;;;5.63;;
21697;SDS011;11010;49.548;11.926;2023-02-15T06:14:55;16.93;;;5.73;;
21697;SDS011;11010;49.548;11.926;2023-02-15T06:17:22;15.10;;;6.00;;
21697;SDS011;11010;49.548;11.926;2023-02-15T06:19:50;16.47;;;6.13;;
21697;SDS011;11010;49.548;11.926;2023-02-15T06:22:17;18.27;;;7.13;;
21697;SDS011;11010;49.548;11.926;2023-02-15T06:24:44;19.83;;;7.80;;
21697;SDS011;11010;49.548;11.926;2023-02-15T06:27:12;15.17;;;5.73;;
21697;SDS011;11010;49.548;11.926;2023-02-15T06:29:39;17.73;;;6.23;;
21697;SDS011;11010;49.548;11.926;2023-02-15T06:32:07;16.40;;;5.70;;
21697;SDS011;11010;49.548;11.926;2023-02-15T06:34:34;15.70;;;5.67;;
21697;SDS011;11010;49.548;11.926;2023-02-15T06:37:02;15.23;;;5.60;;
21697;SDS011;11010;49.548;11.926;2023-02-15T06:39:29;15.23;;;5.70;;
21697;SDS011;11010;49.548;11.926;2023-02-15T06:41:57;16.30;;;5.83;;
21697;SDS011;11010;49.548;11.926;2023-02-15T06:44:24;18.07;;;6.17;;
21697;SDS011;11010;49.548;11.926;2023-02-15T06:46:52;15.37;;;5.67;;
21697;SDS011;11010;49.548;11.926;2023-02-15T06:49:19;16.03;;;6.20;;
21697;SDS011;11010;49.548;11.926;2023-02-15T06:51:46;17.43;;;6.07;;
21697;SDS011;11010;49.548;11.926;2023-02-15T06:54:14;16.10;;;5.83;;
21697;SDS011;11010;49.548;11.926;2023-02-15T06:56:41;14.77;;;5.97;;
21697;SDS011;11010;49.548;11.926;2023-02-15T06:59:09;15.90;;;5.57;;
21697;SDS011;11010;49.548;11.926;2023-02-15T07:01:37;15.57;;;5.67;;
21697;SDS011;11010;49.548;11.926;2023-02-15T07:04:04;15.83;;;6.03;;
21697;SDS011;11010;49.548;11.926;2023-02-15T07:06:32;14.90;;;5.47;;
21697;SDS011;11010;49.548;11.926;2023-02-15T07:09:00;15.67;;;5.77;;
21697;SDS011;11010;49.548;11.926;2023-02-15T07:11:27;14.63;;;5.47;;
21697;SDS011;11010;49.548;11.926;2023-02-15T07:14:13;15.03;;;5.40;;
21697;SDS011;11010;49.548;11.926;2023-02-15T07:16:40;15.97;;;5.73;;
21697;SDS011;11010;49.548;11.926;2023-02-15T07:19:08;16.03;;;5.73;;
21697;SDS011;11010;49.548;11.926;2023-02-15T07:21:35;16.03;;;6.33;;
21697;SDS011;11010;49.548;11.926;2023-02-15T07:24:03;14.50;;;5.50;;
21697;SDS011;11010;49.548;11.926;2023-02-15T07:26:31;17.53;;;5.73;;
21697;SDS011;11010;49.548;11.926;2023-02-15T07:28:58;15.63;;;5.73;;
21697;SDS011;11010;49.548;11.926;2023-02-15T07:31:26;14.47;;;5.10;;
21697;SDS011;11010;49.548;11.926;2023-02-15T07:33:53;15.77;;;5.50;;
21697;SDS011;11010;49.548;11.926;2023-02-15T07:36:21;13.57;;;4.73;;
21697;SDS011;11010;49.548;11.926;2023-02-15T07:38:48;13.67;;;5.27;;
21697;SDS011;11010;49.548;11.926;2023-02-15T07:41:15;14.57;;;5.13;;
21697;SDS011;11010;49.548;11.926;2023-02-15T07:43:43;14.50;;;5.43;;
21697;SDS011;11010;49.548;11.926;2023-02-15T07:46:13;15.57;;;5.80;;
21697;SDS011;11010;49.548;11.926;2023-02-15T07:48:41;15.43;;;5.53;;
21697;SDS011;11010;49.548;11.926;2023-02-15T07:51:09;15.17;;;5.80;;
21697;SDS011;11010;49.548;11.926;2023-02-15T07:53:38;17.13;;;6.20;;
21697;SDS011;11010;49.548;11.926;2023-02-15T07:56:10;14.93;;;5.40;;
21697;SDS011;11010;49.548;11.926;2023-02-15T07:58:37;14.80;;;5.30;;
21697;SDS011;11010;49.548;11.926;2023-02-15T08:01:24;16.40;;;5.77;;
21697;SDS011;11010;49.548;11.926;2023-02-15T08:03:54;14.90;;;5.30;;
21697;SDS011;11010;49.548;11.926;2023-02-15T08:06:23;15.73;;;5.27;;
21697;SDS011;11010;49.548;11.926;2023-02-15T08:08:51;15.83;;;5.83;;
21697;SDS011;11010;49.548;11.926;2023-02-15T08:11:23;15.47;;;5.30;;
21697;SDS011;11010;49.548;11.926;2023-02-15T08:13:52;13.73;;;4.97;;
21697;SDS011;11010;49.548;11.926;2023-02-15T08:16:21;16.23;;;5.60;;
21697;SDS011;11010;49.548;11.926;2023-02-15T08:18:49;16.97;;;5.60;;
21697;SDS011;11010;49.548;11.926;2023-02-15T08:21:17;14.67;;;5.27;;
21697;SDS011;11010;49.548;11.926;2023-02-15T08:23:45;14.40;;;5.50;;
21697;SDS011;11010;49.548;11.926;2023-02-15T08:26:12;14.50;;;5.33;;
21697;SDS011;11010;49.548;11.926;2023-02-15T08:28:40;15.10;;;5.43;;
21697;SDS011;11010;49.548;11.926;2023-02-15T08:31:09;16.20;;;5.57;;
21697;SDS011;11010;49.548;11.926;2023-02-15T08:33:38;14.43;;;5.80;;
21697;SDS011;11010;49.548;11.926;2023-02-15T08:36:07;16.07;;;6.27;;
21697;SDS011;11010;49.548;11.926;2023-02-15T08:38:35;15.13;;;5.80;;
21697;SDS011;11010;49.548;11.926;2023-02-15T08:41:13;18.63;;;6.07;;
21697;SDS011;11010;49.548;11.926;2023-02-15T08:43:40;19.50;;;7.30;;
21697;SDS011;11010;49.548;11.926;2023-02-15T08:46:08;21.03;;;6.87;;
21697;SDS011;11010;49.548;11.926;2023-02-15T08:48:36;21.57;;;7.37;;
21697;SDS011;11010;49.548;11.926;2023-02-15T08:51:05;16.97;;;5.70;;
21697;SDS011;11010;49.548;11.926;2023-02-15T08:53:33;14.87;;;5.77;;
21697;SDS011;11010;49.548;11.926;2023-02-15T08:56:00;13.90;;;4.50;;
21697;SDS011;11010;49.548;11.926;2023-02-15T08:58:28;15.53;;;5.60;;
21697;SDS011;11010;49.548;11.926;2023-02-15T09:00:57;14.00;;;5.60;;
21697;SDS011;11010;49.548;11.926;2023-02-15T09:03:25;14.83;;;5.67;;
21697;SDS011;11010;49.548;11.926;2023-02-15T09:05:57;14.73;;;5.47;;
21697;SDS011;11010;49.548;11.926;2023-02-15T09:08:26;14.27;;;5.40;;
21697;SDS011;11010;49.548;11.926;2023-02-15T09:10:53;15.27;;;5.67;;
21697;SDS011;11010;49.548;11.926;2023-02-15T09:13:21;16.63;;;5.90;;
21697;SDS011;11010;49.548;11.926;2023-02-15T09:15:48;16.60;;;6.23;;
21697;SDS011;11010;49.548;11.926;2023-02-15T09:18:16;14.87;;;5.97;;
21697;SDS011;11010;49.548;11.926;2023-02-15T09:20:43;14.23;;;5.53;;
21697;SDS011;11010;49.548;11.926;2023-02-15T09:23:11;15.20;;;5.37;;
21697;SDS011;11010;49.548;11.926;2023-02-15T09:25:52;15.93;;;5.93;;
21697;SDS011;11010;49.548;11.926;2023-02-15T09:28:19;15.83;;;5.47;;
21697;SDS011;11010;49.548;11.926;2023-02-15T09:30:47;15.63;;;5.70;;
21697;SDS011;11010;49.548;11.926;2023-02-15T09:33:14;14.50;;;4.60;;
21697;SDS011;11010;49.548;11.926;2023-02-15T09:35:42;13.07;;;5.17;;
21697;SDS011;11010;49.548;11.926;2023-02-15T09:38:09;15.47;;;5.67;;
21697;SDS011;11010;49.548;11.926;2023-02-15T09:40:39;15.33;;;4.53;;
21697;SDS011;11010;49.548;11.926;2023-02-15T09:43:15;16.30;;;5.80;;
21697;SDS011;11010;49.548;11.926;2023-02-15T09:45:54;16.43;;;6.10;;
21697;SDS011;11010;49.548;11.926;2023-02-15T09:48:26;16.30;;;6.07;;
21697;SDS011;11010;49.548;11.926;2023-02-15T09:56:26;15.10;;;5.70;;
21697;SDS011;11010;49.548;11.926;2023-02-15T09:59:02;17.23;;;5.93;;
21697;SDS011;11010;49.548;11.926;2023-02-15T10:09:17;14.73;;;5.17;;
21697;SDS011;11010;49.548;11.926;2023-02-15T10:25:31;15.47;;;5.77;;
21697;SDS011;11010;49.548;11.926;2023-02-15T10:28:10;16.50;;;6.07;;
21697;SDS011;11010;49.548;11.926;2023-02-15T10:30:46;18.20;;;6.47;;
21697;SDS011;11010;49.548;11.926;2023-02-15T10:33:27;17.70;;;6.83;;
21697;SDS011;11010;49.548;11.926;2023-02-15T10:57:02;15.43;;;6.10;;
21697;SDS011;11010;49.548;11.926;2023-02-15T11:04:51;16.83;;;5.70;;
21697;SDS011;11010;49.548;11.926;2023-02-15T11:07:23;18.00;;;5.80;;
21697;SDS011;11010;49.548;11.926;2023-02-15T11:09:53;15.17;;;5.20;;
21697;SDS011;11010;49.548;11.926;2023-02-15T11:12:22;15.77;;;5.33;;
21697;SDS011;11010;49.548;11.926;2023-02-15T11:15:04;15.97;;;5.80;;
21697;SDS011;11010;49.548;11.926;2023-02-15T11:17:38;19.40;;;6.27;;
21697;SDS011;11010;49.548;11.926;2023-02-15T11:22:37;17.53;;;6.23;;
21697;SDS011;11010;49.548;11.926;2023-02-15T11:25:14;22.10;;;6.67;;
21697;SDS011;11010;49.548;11.926;2023-02-15T11:27:42;19.07;;;6.50;;
21697;SDS011;11010;49.548;11.926;2023-02-15T11:30:13;20.43;;;7.13;;
21697;SDS011;11010;49.548;11.926;2023-02-15T11:32:43;15.63;;;5.70;;
21697;SDS011;11010;49.548;11.926;2023-02-15T11:35:18;19.07;;;6.50;;
21697;SDS011;11010;49.548;11.926;2023-02-15T11:40:21;15.83;;;5.87;;
21697;SDS011;11010;49.548;11.926;2023-02-15T11:42:55;19.87;;;6.17;;
21697;SDS011;11010;49.548;11.926;2023-02-15T11:45:30;20.10;;;7.10;;
21697;SDS011;11010;49.548;11.926;2023-02-15T11:47:58;64.20;;;16.03;;
21697;SDS011;11010;49.548;11.926;2023-02-15T11:50:27;50.13;;;13.17;;
21697;SDS011;11010;49.548;11.926;2023-02-15T11:53:02;17.10;;;5.67;;
21697;SDS011;11010;49.548;11.926;2023-02-15T11:55:31;23.60;;;7.43;;
21697;SDS011;11010;49.548;11.926;2023-02-15T12:00:47;18.07;;;6.77;;
21697;SDS011;11010;49.548;11.926;2023-02-15T12:03:21;41.87;;;14.00;;
21697;SDS011;11010;49.548;11.926;2023-02-15T12:05:53;18.30;;;6.30;;
21697;SDS011;11010;49.548;11.926;2023-02-15T12:08:23;18.60;;;7.03;;
21697;SDS011;11010;49.548;11.926;2023-02-15T12:11:02;23.40;;;8.77;;
21697;SDS011;11010;49.548;11.926;2023-02-15T12:13:33;17.70;;;6.77;;
21697;SDS011;11010;49.548;11.926;2023-02-15T12:16:04;15.83;;;5.77;;
21697;SDS011;11010;49.548;11.926;2023-02-15T12:18:37;18.97;;;6.80;;
21697;SDS011;11010;49.548;11.926;2023-02-15T12:21:10;17.97;;;6.40;;
21697;SDS011;11010;49.548;11.926;2023-02-15T12:23:41;17.30;;;6.33;;
21697;SDS011;11010;49.548;11.926;2023-02-15T12:26:10;17.17;;;6.23;;
21697;SDS011;11010;49.548;11.926;2023-02-15T12:28:39;17.90;;;6.63;;
21697;SDS011;11010;49.548;11.926;2023-02-15T12:31:10;18.03;;;6.43;;
21697;SDS011;11010;49.548;11.926;2023-02-15T12:33:46;18.10;;;6.27;;
21697;SDS011;11010;49.548;11.926;2023-02-15T12:36:18;18.67;;;6.50;;
21697;SDS011;11010;49.548;11.926;2023-02-15T12:41:48;18.17;;;6.07;;
21697;SDS011;11010;49.548;11.926;2023-02-15T12:44:25;17.17;;;5.63;;
21697;SDS011;11010;49.548;11.926;2023-02-15T12:49:27;18.47;;;6.30;;
21697;SDS011;11010;49.548;11.926;2023-02-15T12:51:56;17.03;;;6.43;;
21697;SDS011;11010;49.548;11.926;2023-02-15T12:56:58;15.53;;;5.40;;
21697;SDS011;11010;49.548;11.926;2023-02-15T12:59:26;17.33;;;6.57;;
21697;SDS011;11010;49.548;11.926;2023-02-15T13:01:54;18.30;;;6.73;;
21697;SDS011;11010;49.548;11.926;2023-02-15T13:04:23;17.07;;;6.13;;
21697;SDS011;11010;49.548;11.926;2023-02-15T13:06:52;17.87;;;6.67;;
21697;SDS011;11010;49.548;11.926;2023-02-15T13:09:25;15.97;;;6.13;;
21697;SDS011;11010;49.548;11.926;2023-02-15T13:11:56;19.23;;;6.77;;
21697;SDS011;11010;49.548;11.926;2023-02-15T13:14:31;19.37;;;6.87;;
21697;SDS011;11010;49.548;11.926;2023-02-15T13:17:00;17.60;;;6.63;;
21697;SDS011;11010;49.548;11.926;2023-02-15T13:19:31;21.30;;;6.60;;
21697;SDS011;11010;49.548;11.926;2023-02-15T13:22:13;18.77;;;6.97;;
21697;SDS011;11010;49.548;11.926;2023-02-15T13:24:57;17.27;;;6.20;;
21697;SDS011;11010;49.548;11.926;2023-02-15T13:27:36;19.13;;;6.90;;
21697;SDS011;11010;49.548;11.926;2023-02-15T13:30:16;16.57;;;6.27;;
21697;SDS011;11010;49.548;11.926;2023-02-15T13:32:47;18.70;;;6.80;;
21697;SDS011;11010;49.548;11.926;2023-02-15T13:35:16;16.37;;;5.97;;
21697;SDS011;11010;49.548;11.926;2023-02-15T13:40:20;19.47;;;6.27;;
21697;SDS011;11010;49.548;11.926;2023-02-15T13:42:52;19.90;;;7.23;;
21697;SDS011;11010;49.548;11.926;2023-02-15T13:48:00;18.13;;;6.47;;
21697;SDS011;11010;49.548;11.926;2023-02-15T13:55:50;19.70;;;6.90;;
21697;SDS011;11010;49.548;11.926;2023-02-15T14:01:11;20.40;;;7.27;;
21697;SDS011;11010;49.548;11.926;2023-02-15T14:03:50;17.87;;;5.83;;
21697;SDS011;11010;49.548;11.926;2023-02-15T14:09:06;19.80;;;7.60;;
21697;SDS011;11010;49.548;11.926;2023-02-15T14:19:40;19.00;;;6.20;;
21697;SDS011;11010;49.548;11.926;2023-02-15T14:24:57;20.07;;;7.13;;
21697;SDS011;11010;49.548;11.926;2023-02-15T14:27:49;21.37;;;7.43;;
21697;SDS011;11010;49.548;11.926;2023-02-15T14:30:21;19.43;;;7.53;;
21697;SDS011;11010;49.548;11.926;2023-02-15T14:33:05;21.40;;;7.93;;
21697;SDS011;11010;49.548;11.926;2023-02-15T14:35:34;18.60;;;6.87;;
21697;SDS011;11010;49.548;11.926;2023-02-15T14:38:07;18.47;;;7.23;;
21697;SDS011;11010;49.548;11.926;2023-02-15T14:46:25;20.00;;;7.87;;
21697;SDS011;11010;49.548;11.926;2023-02-15T14:48:56;18.27;;;7.33;;
21697;SDS011;11010;49.548;11.926;2023-02-15T14:54:09;18.03;;;7.47;;
21697;SDS011;11010;49.548;11.926;2023-02-15T14:56:37;19.33;;;7.67;;
21697;SDS011;11010;49.548;11.926;2023-02-15T14:59:20;18.77;;;7.20;;
21697;SDS011;11010;49.548;11.926;2023-02-15T15:01:57;21.90;;;7.37;;
21697;SDS011;11010;49.548;11.926;2023-02-15T15:04:27;18.50;;;7.10;;
21697;SDS011;11010;49.548;11.926;2023-02-15T15:07:14;18.37;;;7.23;;
21697;SDS011;11010;49.548;11.926;2023-02-15T15:09:46;18.40;;;6.93;;
21697;SDS011;11010;49.548;11.926;2023-02-15T15:14:43;17.23;;;7.20;;
21697;SDS011;11010;49.548;11.926;2023-02-15T15:17:13;20.60;;;7.30;;
21697;SDS011;11010;49.548;11.926;2023-02-15T15:24:45;20.57;;;8.23;;
21697;SDS011;11010;49.548;11.926;2023-02-15T15:29:59;21.27;;;7.63;;
21697;SDS011;11010;49.548;11.926;2023-02-15T15:32:28;20.77;;;7.90;;
21697;SDS011;11010;49.548;11.926;2023-02-15T15:37:39;22.57;;;8.70;;
21697;SDS011;11010;49.548;11.926;2023-02-15T15:40:15;20.83;;;7.43;;
21697;SDS011;11010;49.548;11.926;2023-02-15T15:50:21;19.00;;;8.13;;
21697;SDS011;11010;49.548;11.926;2023-02-15T15:52:55;22.53;;;8.67;;
21697;SDS011;11010;49.548;11.926;2023-02-15T15:55:25;20.73;;;8.30;;
21697;SDS011;11010;49.548;11.926;2023-02-15T15:58:02;19.83;;;7.90;;
21697;SDS011;11010;49.548;11.926;2023-02-15T16:00:47;19.53;;;7.90;;
21697;SDS011;11010;49.548;11.926;2023-02-15T16:03:23;22.17;;;8.43;;
21697;SDS011;11010;49.548;11.926;2023-02-15T16:05:51;19.23;;;7.57;;
21697;SDS011;11010;49.548;11.926;2023-02-15T16:08:40;22.13;;;9.47;;
21697;SDS011;11010;49.548;11.926;2023-02-15T16:11:16;20.37;;;8.57;;
21697;SDS011;11010;49.548;11.926;2023-02-15T16:13:45;21.50;;;8.20;;
21697;SDS011;11010;49.548;11.926;2023-02-15T16:16:19;18.30;;;7.33;;
21697;SDS011;11010;49.548;11.926;2023-02-15T16:18:47;22.27;;;8.50;;
21697;SDS011;11010;49.548;11.926;2023-02-15T16:21:19;21.27;;;8.47;;
21697;SDS011;11010;49.548;11.926;2023-02-15T16:23:54;21.03;;;8.00;;
21697;SDS011;11010;49.548;11.926;2023-02-15T16:28:53;19.50;;;7.57;;
21697;SDS011;11010;49.548;11.926;2023-02-15T16:31:21;18.20;;;7.40;;
21697;SDS011;11010;49.548;11.926;2023-02-15T16:33:51;20.83;;;8.10;;
21697;SDS011;11010;49.548;11.926;2023-02-15T16:36:26;19.00;;;7.47;;
21697;SDS011;11010;49.548;11.926;2023-02-15T16:41:25;19.00;;;7.70;;
21697;SDS011;11010;49.548;11.926;2023-02-15T16:43:54;19.23;;;8.40;;
21697;SDS011;11010;49.548;11.926;2023-02-15T16:48:56;18.10;;;7.87;;
21697;SDS011;11010;49.548;11.926;2023-02-15T16:51:25;19.20;;;8.10;;
21697;SDS011;11010;49.548;11.926;2023-02-15T16:53:54;20.97;;;7.80;;
21697;SDS011;11010;49.548;11.926;2023-02-15T16:56:26;21.37;;;7.90;;
21697;SDS011;11010;49.548;11.926;2023-02-15T16:58:54;18.37;;;7.17;;
21697;SDS011;11010;49.548;11.926;2023-02-15T17:01:25;19.10;;;7.87;;
21697;SDS011;11010;49.548;11.926;2023-02-15T17:04:39;19.10;;;8.23;;
21697;SDS011;11010;49.548;11.926;2023-02-15T17:06:41;20.83;;;8.13;;
21697;SDS011;11010;49.548;11.926;2023-02-15T17:09:24;18.63;;;7.90;;
21697;SDS011;11010;49.548;11.926;2023-02-15T17:11:51;20.20;;;7.77;;
21697;SDS011;11010;49.548;11.926;2023-02-15T17:14:20;20.43;;;8.27;;
21697;SDS011;11010;49.548;11.926;2023-02-15T17:16:49;20.73;;;7.73;;
21697;SDS011;11010;49.548;11.926;2023-02-15T17:19:22;20.30;;;7.87;;
21697;SDS011;11010;49.548;11.926;2023-02-15T17:21:52;19.27;;;8.00;;
21697;SDS011;11010;49.548;11.926;2023-02-15T17:27:13;18.77;;;7.83;;
21697;SDS011;11010;49.548;11.926;2023-02-15T17:29:51;20.80;;;7.77;;
21697;SDS011;11010;49.548;11.926;2023-02-15T17:32:20;21.00;;;7.70;;
21697;SDS011;11010;49.548;11.926;2023-02-15T17:37:29;19.37;;;8.10;;
21697;SDS011;11010;49.548;11.926;2023-02-15T17:39:57;20.43;;;8.20;;
21697;SDS011;11010;49.548;11.926;2023-02-15T17:42:25;17.23;;;7.17;;
21697;SDS011;11010;49.548;11.926;2023-02-15T17:44:53;18.73;;;7.53;;